Aviation Digital Data Service (ADDS)

Output produced by TAFs form (0137 UTC 22 November 2017)
found at http://www.aviationweather.gov/adds/tafs/
 
METAR text: RJSC 220100Z 19003KT 140V240 9999 FEW010 BKN/// 03/02 Q1023
Conditions at: RJSC (YAMAGATA(CIV/JGS, JP) observed 0100 UTC 22 November 2017
Temperature: 3.0°C (37°F)
Dewpoint: 2.0°C (36°F) [RH = 93%]
Pressure (altimeter): 30.21 inches Hg (1023.0 mb)
Winds: from the S (190 degrees) at 3 MPH (3 knots; 1.6 m/s)
Visibility: 6 or more miles (10+ km)
Ceiling: at least 12,000 feet AGL
Clouds: few clouds at 1000 feet AGL
Weather: no significant weather observed at this time